Time;durP1;ratioP1;P1;durP2;ratioP2;P2;SDS_P1;SDS_P2;PMS_P1;PMS_P2;Temp;Humidity;BMP_temperature;BMP_pressure;BME280_temperature;BME280_humidity;BME280_pressure;Samples;Min_cycle;Max_cycle;Signal;HPM_P1;HPM_P2
2023/08/26 00:00:13;;;;;;;16.05;14.32;;;22.30;1.00;;;;;;5076126;28;20227;-69
2023/08/26 00:03:02;;;;;;;16.08;14.45;;;22.40;1.00;;;;;;5080171;28;20845;-67
2023/08/26 00:05:52;;;;;;;18.13;16.20;;;22.40;99.90;;;;;;5075428;28;20691;-71
2023/08/26 00:08:42;;;;;;;19.90;15.40;;;22.30;99.90;;;;;;5085243;28;20765;-70
2023/08/26 00:11:31;;;;;;;18.33;15.45;;;22.30;99.90;;;;;;5076975;28;20266;-69
2023/08/26 00:14:20;;;;;;;19.08;16.08;;;22.30;99.90;;;;;;5098980;28;20254;-70
2023/08/26 00:17:09;;;;;;;18.17;15.15;;;22.30;99.90;;;;;;5080550;28;20678;-69
2023/08/26 00:19:58;;;;;;;17.20;15.23;;;22.30;99.90;;;;;;5097214;28;20249;-69
2023/08/26 00:22:46;;;;;;;21.30;15.27;;;22.30;99.90;;;;;;5091662;28;20268;-69
2023/08/26 00:25:36;;;;;;;18.30;15.30;;;22.30;99.90;;;;;;5093724;28;20287;-70
2023/08/26 00:28:28;;;;;;;17.60;15.50;;;22.40;99.90;;;;;;5075996;28;20318;-69
2023/08/26 00:31:17;;;;;;;17.45;15.65;;;22.30;99.90;;;;;;5076777;28;20257;-69
2023/08/26 00:34:06;;;;;;;19.20;15.23;;;22.30;99.90;;;;;;5077154;28;20647;-70
2023/08/26 00:36:55;;;;;;;19.30;15.77;;;22.40;99.90;;;;;;5072981;28;20310;-70
2023/08/26 00:39:44;;;;;;;20.33;16.20;;;22.40;99.90;;;;;;5076103;28;20586;-70
2023/08/26 00:42:37;;;;;;;19.95;16.40;;;22.40;99.90;;;;;;5074417;28;20268;-70
2023/08/26 00:45:29;;;;;;;20.55;17.45;;;22.40;99.90;;;;;;5082956;28;20242;-70
2023/08/26 00:48:20;;;;;;;23.80;17.85;;;22.30;99.90;;;;;;5080819;28;20219;-69
2023/08/26 00:51:10;;;;;;;25.67;20.40;;;22.20;99.90;;;;;;5083247;28;20295;-68
2023/08/26 00:54:00;;;;;;;24.58;19.58;;;22.10;99.90;;;;;;5082244;28;20211;-69
2023/08/26 00:56:48;;;;;;;22.63;19.48;;;22.00;99.90;;;;;;5079630;28;20219;-67
2023/08/26 00:59:39;;;;;;;17.75;15.68;;;22.00;99.90;;;;;;5081973;28;20223;-69
2023/08/26 01:02:28;;;;;;;21.75;16.58;;;21.90;99.90;;;;;;5083029;28;20227;-67
2023/08/26 01:05:17;;;;;;;22.10;17.75;;;21.90;99.90;;;;;;5079508;28;20227;-68
2023/08/26 01:08:07;;;;;;;19.98;15.98;;;21.90;99.90;;;;;;5079348;28;20606;-68
2023/08/26 01:11:04;;;;;;;17.20;14.05;;;21.80;99.90;;;;;;5081197;28;20283;-68
2023/08/26 01:14:03;;;;;;;19.20;13.00;;;21.80;99.90;;;;;;5094619;28;20239;-70
2023/08/26 01:16:54;;;;;;;14.27;9.77;;;21.70;99.90;;;;;;5080352;28;20246;-70
2023/08/26 01:19:45;;;;;;;12.27;10.23;;;21.50;99.90;;;;;;5091624;28;20212;-69
2023/08/26 01:22:35;;;;;;;18.45;10.05;;;21.60;99.90;;;;;;5089091;28;20314;-71
2023/08/26 01:25:26;;;;;;;10.90;8.30;;;21.50;99.90;;;;;;5073604;28;20227;-69
2023/08/26 01:28:16;;;;;;;12.40;7.28;;;21.40;99.90;;;;;;5078842;28;20234;-69
2023/08/26 01:31:10;;;;;;;11.93;8.13;;;21.20;99.90;;;;;;5079073;28;20211;-67
2023/08/26 01:34:07;;;;;;;10.20;7.50;;;21.20;99.90;;;;;;5075766;28;20355;-69
2023/08/26 01:36:58;;;;;;;9.60;6.97;;;21.20;99.90;;;;;;5064922;28;20224;-68
2023/08/26 01:39:49;;;;;;;10.27;6.40;;;21.00;99.90;;;;;;5059859;28;20538;-67
2023/08/26 01:42:42;;;;;;;10.43;6.10;;;20.90;99.90;;;;;;5075054;28;20269;-67
2023/08/26 01:45:31;;;;;;;8.45;5.75;;;20.80;99.90;;;;;;5063366;28;20282;-67
2023/08/26 01:48:20;;;;;;;8.07;5.95;;;20.90;99.90;;;;;;5056317;28;20355;-69
2023/08/26 01:51:09;;;;;;;8.30;6.57;;;21.00;99.90;;;;;;5076309;28;20719;-69
2023/08/26 01:53:58;;;;;;;8.93;6.53;;;21.00;99.90;;;;;;5063253;28;20215;-69
2023/08/26 01:56:47;;;;;;;10.55;6.25;;;21.10;99.90;;;;;;5064032;28;20219;-68
2023/08/26 01:59:37;;;;;;;7.60;6.28;;;21.10;99.90;;;;;;5063486;28;20215;-68
2023/08/26 02:02:29;;;;;;;9.52;6.30;;;21.10;99.90;;;;;;5063538;28;20215;-68
2023/08/26 02:05:18;;;;;;;8.95;6.88;;;21.20;99.90;;;;;;5057783;28;20220;-68
2023/08/26 02:08:07;;;;;;;7.07;6.38;;;21.10;99.90;;;;;;5076665;28;21445;-67
2023/08/26 02:10:56;;;;;;;9.52;6.43;;;21.10;99.90;;;;;;5061859;28;20311;-69
2023/08/26 02:13:45;;;;;;;10.57;7.13;;;21.10;99.90;;;;;;5079392;28;20239;-68
2023/08/26 02:16:36;;;;;;;10.43;7.10;;;21.10;99.90;;;;;;5060011;28;20650;-67
2023/08/26 02:19:24;;;;;;;9.65;6.60;;;21.10;99.90;;;;;;5063456;28;20223;-68
2023/08/26 02:22:15;;;;;;;7.78;6.88;;;21.10;99.90;;;;;;5059572;28;20294;-67
2023/08/26 02:25:05;;;;;;;8.32;5.88;;;21.20;99.90;;;;;;5078584;28;20223;-68
2023/08/26 02:27:54;;;;;;;9.50;6.43;;;21.10;99.90;;;;;;5058387;28;20730;-68
2023/08/26 02:30:43;;;;;;;8.80;6.72;;;21.10;99.90;;;;;;5075730;28;20592;-67
2023/08/26 02:33:34;;;;;;;10.73;6.72;;;21.10;99.90;;;;;;5071187;28;20315;-67
2023/08/26 02:36:23;;;;;;;8.38;6.68;;;21.20;99.90;;;;;;5079929;28;20223;-67
2023/08/26 02:39:12;;;;;;;8.32;6.55;;;21.20;99.90;;;;;;5064073;28;20636;-68
2023/08/26 02:42:00;;;;;;;8.77;7.15;;;21.20;99.90;;;;;;5057627;28;20215;-68
2023/08/26 02:44:49;;;;;;;11.57;7.78;;;21.20;99.90;;;;;;5062052;28;20215;-68
2023/08/26 02:47:38;;;;;;;11.07;7.70;;;21.10;99.90;;;;;;5059449;28;20231;-68
2023/08/26 02:50:30;;;;;;;11.93;7.75;;;21.10;99.90;;;;;;5064867;28;20231;-69
2023/08/26 02:53:19;;;;;;;10.80;7.95;;;21.00;99.90;;;;;;5062364;28;20223;-67
2023/08/26 02:56:08;;;;;;;9.75;7.75;;;21.10;99.90;;;;;;5068686;28;20265;-69
2023/08/26 02:58:57;;;;;;;11.88;8.07;;;21.10;99.90;;;;;;5066116;28;20572;-69
2023/08/26 03:01:45;;;;;;;9.25;8.25;;;21.00;99.90;;;;;;5066061;28;20220;-68
2023/08/26 03:04:35;;;;;;;10.18;8.18;;;21.00;99.90;;;;;;5065869;28;20227;-70
2023/08/26 03:07:25;;;;;;;11.90;8.70;;;21.00;99.90;;;;;;5064689;28;20313;-68
2023/08/26 03:10:14;;;;;;;12.23;8.70;;;21.10;99.90;;;;;;5067388;28;20733;-68
2023/08/26 03:13:06;;;;;;;9.73;8.80;;;21.10;99.90;;;;;;5062586;28;20406;-68
2023/08/26 03:15:56;;;;;;;10.90;8.30;;;21.10;99.90;;;;;;5059733;28;20307;-70
2023/08/26 03:18:46;;;;;;;11.27;8.93;;;21.00;99.90;;;;;;5062899;28;20227;-68
2023/08/26 03:21:35;;;;;;;11.23;8.48;;;21.00;99.90;;;;;;5062018;28;20211;-70
2023/08/26 03:24:27;;;;;;;12.27;9.30;;;21.00;99.90;;;;;;5066307;28;20265;-68
2023/08/26 03:27:17;;;;;;;11.98;9.60;;;21.00;99.90;;;;;;5063908;28;20243;-68
2023/08/26 03:30:07;;;;;;;9.73;8.73;;;21.00;99.90;;;;;;5076384;28;20223;-67
2023/08/26 03:32:57;;;;;;;11.57;9.18;;;21.00;99.90;;;;;;5069200;28;20212;-68
2023/08/26 03:35:46;;;;;;;12.60;9.30;;;21.00;99.90;;;;;;5066749;28;20221;-68
2023/08/26 03:38:35;;;;;;;10.77;9.55;;;21.00;99.90;;;;;;5054632;28;20219;-70
2023/08/26 03:41:26;;;;;;;11.20;9.05;;;20.90;99.90;;;;;;5061896;28;20721;-69
2023/08/26 03:44:15;;;;;;;12.32;10.52;;;20.90;99.90;;;;;;5061215;28;20224;-69
2023/08/26 03:47:04;;;;;;;15.85;10.25;;;20.90;99.90;;;;;;5062234;28;20989;-68
2023/08/26 03:49:53;;;;;;;13.18;10.48;;;21.00;99.90;;;;;;5068036;28;20268;-69
2023/08/26 03:52:42;;;;;;;16.23;10.15;;;20.90;99.90;;;;;;5065440;28;20231;-68
2023/08/26 03:55:36;;;;;;;15.20;10.05;;;20.90;99.90;;;;;;5044020;28;20278;-69
2023/08/26 03:58:27;;;;;;;14.10;9.68;;;20.90;99.90;;;;;;5040913;28;20295;-69
2023/08/26 04:01:16;;;;;;;10.50;9.40;;;20.90;99.90;;;;;;5053259;28;20715;-69
2023/08/26 04:04:06;;;;;;;10.88;9.77;;;20.90;99.90;;;;;;5067996;28;20231;-68
2023/08/26 04:06:57;;;;;;;10.73;9.63;;;20.90;99.90;;;;;;5045019;28;20726;-69
2023/08/26 04:09:45;;;;;;;10.38;9.27;;;20.90;99.90;;;;;;5057360;28;20251;-68
2023/08/26 04:12:34;;;;;;;12.25;9.77;;;20.80;99.90;;;;;;5057801;28;20339;-69
2023/08/26 04:15:25;;;;;;;13.85;10.45;;;20.90;99.90;;;;;;5059863;28;20243;-69
2023/08/26 04:18:14;;;;;;;10.90;9.65;;;20.90;99.90;;;;;;5061673;28;20227;-70
2023/08/26 04:21:05;;;;;;;11.30;10.10;;;20.90;99.90;;;;;;5075296;28;20231;-68
2023/08/26 04:23:54;;;;;;;13.65;10.95;;;21.00;99.90;;;;;;5063203;28;20557;-70
2023/08/26 04:27:08;;;;;;;12.48;10.93;;;21.00;99.90;;;;;;5082168;28;20248;-70
2023/08/26 04:29:56;;;;;;;14.10;10.32;;;21.00;99.90;;;;;;5052848;28;20292;-68
2023/08/26 04:32:47;;;;;;;12.02;10.68;;;21.10;99.90;;;;;;5059254;28;20305;-67
2023/08/26 04:35:37;;;;;;;14.25;11.43;;;21.20;99.90;;;;;;5062208;28;20254;-66
2023/08/26 04:38:28;;;;;;;14.60;11.88;;;21.30;99.90;;;;;;5064969;28;20223;-68
2023/08/26 04:41:18;;;;;;;14.05;12.25;;;21.30;99.90;;;;;;5069598;28;20231;-68
2023/08/26 04:44:08;;;;;;;12.70;11.32;;;21.30;99.90;;;;;;5070030;28;20219;-68
2023/08/26 04:46:57;;;;;;;13.15;11.77;;;21.40;99.90;;;;;;5066932;28;20301;-68
2023/08/26 04:49:48;;;;;;;16.08;12.60;;;21.50;99.90;;;;;;5060100;28;20243;-65
2023/08/26 04:52:39;;;;;;;13.35;11.90;;;21.50;99.90;;;;;;5054217;28;20306;-67
2023/08/26 04:55:28;;;;;;;15.02;12.00;;;21.60;99.90;;;;;;5062722;28;20223;-68
2023/08/26 04:58:20;;;;;;;13.98;11.65;;;21.60;99.90;;;;;;5056934;28;20759;-68
2023/08/26 05:01:09;;;;;;;14.40;12.20;;;21.70;99.90;;;;;;5060258;28;20216;-66
2023/08/26 05:03:57;;;;;;;14.88;12.20;;;21.80;99.90;;;;;;5057662;28;20221;-68
2023/08/26 05:06:48;;;;;;;15.63;12.40;;;21.80;99.90;;;;;;5053476;28;20235;-70
2023/08/26 05:09:37;;;;;;;14.23;12.75;;;21.90;99.90;;;;;;5062070;28;20219;-67
2023/08/26 05:12:29;;;;;;;15.95;12.80;;;22.00;99.90;;;;;;5051327;28;20215;-69
2023/08/26 05:15:18;;;;;;;18.05;12.65;;;22.10;99.90;;;;;;5077445;28;20227;-68
2023/08/26 05:18:07;;;;;;;13.52;11.95;;;22.20;99.90;;;;;;5083636;28;20784;-69
2023/08/26 05:20:56;;;;;;;13.40;12.07;;;22.20;99.90;;;;;;5067194;28;20276;-70
2023/08/26 05:23:46;;;;;;;14.93;11.90;;;22.30;99.90;;;;;;5070546;28;20651;-68
2023/08/26 05:26:37;;;;;;;12.73;11.38;;;22.30;99.90;;;;;;5057081;28;20310;-69
2023/08/26 05:29:28;;;;;;;12.93;11.15;;;22.40;99.90;;;;;;5061876;28;20306;-68
2023/08/26 05:32:17;;;;;;;14.32;11.13;;;23.50;99.90;;;;;;5057819;28;20272;-67
2023/08/26 05:35:08;;;;;;;13.88;10.75;;;25.00;99.90;;;;;;5042723;28;20224;-67
2023/08/26 05:37:58;;;;;;;12.15;9.77;;;25.80;99.90;;;;;;5052563;28;20808;-69
2023/08/26 05:40:50;;;;;;;11.60;10.10;;;25.40;1.00;;;;;;5066746;28;20216;-69
2023/08/26 05:43:39;;;;;;;12.05;10.85;;;24.70;1.00;;;;;;5065603;28;20280;-67
2023/08/26 05:46:28;;;;;;;10.23;9.23;;;25.30;1.00;;;;;;5039692;28;20220;-70
2023/08/26 05:49:17;;;;;;;12.93;11.02;;;25.20;1.00;;;;;;5068872;28;20224;-67
2023/08/26 05:52:06;;;;;;;12.48;11.25;;;24.60;1.00;;;;;;5065322;28;20242;-68
2023/08/26 05:54:56;;;;;;;11.70;10.50;;;24.20;84.40;;;;;;5067552;28;20232;-68
2023/08/26 05:57:47;;;;;;;16.42;11.43;;;23.90;36.00;;;;;;5063013;28;20423;-68
2023/08/26 06:00:37;;;;;;;14.02;11.63;;;23.80;99.90;;;;;;5064147;28;20729;-68
2023/08/26 06:03:25;;;;;;;13.43;11.40;;;23.80;99.90;;;;;;5081241;28;20222;-68
2023/08/26 06:06:15;;;;;;;13.88;11.48;;;23.80;99.90;;;;;;5063328;28;20216;-69
2023/08/26 06:09:04;;;;;;;13.23;11.95;;;23.80;99.90;;;;;;5083152;28;20234;-68
2023/08/26 06:11:53;;;;;;;16.20;11.20;;;23.70;99.90;;;;;;5070677;28;20729;-70
2023/08/26 06:14:44;;;;;;;12.32;11.13;;;23.70;99.90;;;;;;5068779;28;20255;-69
2023/08/26 06:17:35;;;;;;;12.50;10.90;;;23.70;99.90;;;;;;5063033;28;20226;-69
2023/08/26 06:20:24;;;;;;;14.70;12.48;;;23.70;99.90;;;;;;5075213;28;20360;-69
2023/08/26 06:23:14;;;;;;;14.68;11.93;;;23.80;99.90;;;;;;5060693;28;20695;-69
2023/08/26 06:26:05;;;;;;;15.82;11.93;;;23.80;99.90;;;;;;5068411;28;20232;-70
2023/08/26 06:28:54;;;;;;;12.77;11.50;;;23.90;99.90;;;;;;5052598;28;20395;-70
2023/08/26 06:31:45;;;;;;;13.27;12.07;;;23.90;99.90;;;;;;5054318;28;20233;-70
2023/08/26 06:34:35;;;;;;;13.27;11.90;;;24.00;99.90;;;;;;5064385;28;20223;-69
2023/08/26 06:37:24;;;;;;;13.73;11.77;;;24.00;99.90;;;;;;5061575;28;20310;-69
2023/08/26 06:40:13;;;;;;;13.60;12.30;;;24.10;99.90;;;;;;5083205;28;20349;-70
2023/08/26 06:43:03;;;;;;;14.40;12.32;;;24.10;99.90;;;;;;5055760;28;20247;-70
2023/08/26 06:45:58;;;;;;;17.08;14.30;;;24.10;99.90;;;;;;5076972;28;20721;-70
2023/08/26 06:48:50;;;;;;;15.02;12.15;;;24.10;99.90;;;;;;5072375;28;20262;-71
2023/08/26 06:51:39;;;;;;;13.68;11.82;;;24.10;99.90;;;;;;5056770;28;20220;-71
2023/08/26 06:54:27;;;;;;;18.42;13.18;;;24.20;99.90;;;;;;5061768;28;20220;-71
2023/08/26 06:57:19;;;;;;;14.10;11.88;;;24.40;99.90;;;;;;5061963;28;20675;-73
2023/08/26 07:00:09;;;;;;;15.00;13.40;;;24.50;1.00;;;;;;5073076;28;20224;-69
2023/08/26 07:02:59;;;;;;;14.75;12.35;;;24.60;94.80;;;;;;5085936;28;20227;-69
2023/08/26 07:05:49;;;;;;;17.63;12.02;;;24.70;1.00;;;;;;5060049;28;20219;-71
2023/08/26 07:08:38;;;;;;;15.95;12.82;;;24.90;99.90;;;;;;5078250;28;20900;-72
2023/08/26 07:11:27;;;;;;;13.30;11.90;;;24.90;1.00;;;;;;5070829;28;20223;-70
2023/08/26 07:14:16;;;;;;;13.35;11.85;;;25.00;1.00;;;;;;5046837;28;20746;-70
2023/08/26 07:17:05;;;;;;;17.25;11.98;;;25.10;99.90;;;;;;5064719;28;20605;-71
2023/08/26 07:19:54;;;;;;;12.10;10.85;;;25.30;99.90;;;;;;5081139;28;20250;-72
2023/08/26 07:22:44;;;;;;;15.65;11.27;;;25.30;99.90;;;;;;5064802;28;20227;-70
2023/08/26 07:25:36;;;;;;;14.40;11.65;;;25.30;94.50;;;;;;5058951;28;20575;-71
2023/08/26 07:28:25;;;;;;;13.15;11.77;;;25.50;99.90;;;;;;5079377;28;20242;-72
2023/08/26 07:31:14;;;;;;;13.52;12.23;;;25.60;1.00;;;;;;5060557;28;20231;-73
2023/08/26 07:34:04;;;;;;;13.93;11.13;;;25.70;1.00;;;;;;5055504;28;20273;-71
2023/08/26 07:36:53;;;;;;;13.10;10.95;;;25.70;99.90;;;;;;5055915;28;20223;-71
2023/08/26 07:39:43;;;;;;;13.52;11.32;;;25.70;1.00;;;;;;5046527;28;20229;-70
2023/08/26 07:42:32;;;;;;;13.32;11.73;;;25.80;46.30;;;;;;5075568;28;20301;-73
2023/08/26 07:45:21;;;;;;;11.85;10.63;;;25.90;1.00;;;;;;5063280;28;20296;-71
2023/08/26 07:48:10;;;;;;;15.35;11.10;;;26.00;1.00;;;;;;5076729;28;20219;-72
2023/08/26 07:51:02;;;;;;;13.82;11.13;;;26.10;1.00;;;;;;5080409;28;20216;-73
2023/08/26 07:53:51;;;;;;;15.32;10.63;;;26.20;1.00;;;;;;5061882;28;20228;-73
2023/08/26 07:56:41;;;;;;;14.48;11.52;;;26.30;1.00;;;;;;5064199;28;20231;-73
2023/08/26 07:59:30;;;;;;;16.05;10.80;;;26.40;99.90;;;;;;5073025;28;20287;-72
2023/08/26 08:02:19;;;;;;;12.27;10.43;;;26.60;99.90;;;;;;5077179;28;20643;-72
2023/08/26 08:05:08;;;;;;;15.82;10.40;;;26.70;99.90;;;;;;5055715;28;20235;-73
2023/08/26 08:07:57;;;;;;;12.88;9.80;;;27.10;87.30;;;;;;5069782;28;20228;-73
2023/08/26 08:10:46;;;;;;;12.18;9.55;;;27.20;1.00;;;;;;5061319;28;20220;-73
2023/08/26 08:13:36;;;;;;;10.73;9.57;;;27.70;49.70;;;;;;5063321;28;20294;-72
2023/08/26 08:16:26;;;;;;;12.00;9.65;;;28.00;99.90;;;;;;5075713;28;20228;-71
2023/08/26 08:19:16;;;;;;;12.38;8.90;;;28.20;99.90;;;;;;5067269;28;20216;-72
2023/08/26 08:22:05;;;;;;;11.07;9.90;;;28.40;99.90;;;;;;5064146;28;20223;-72
2023/08/26 08:24:54;;;;;;;13.00;9.63;;;28.50;99.90;;;;;;5060756;28;20774;-70
2023/08/26 08:27:43;;;;;;;12.25;8.63;;;28.70;99.90;;;;;;5046390;28;20516;-72
2023/08/26 08:30:33;;;;;;;9.20;8.30;;;29.00;99.90;;;;;;5075232;28;20212;-73
2023/08/26 08:33:22;;;;;;;10.25;8.77;;;29.30;99.90;;;;;;5075778;28;20223;-72
2023/08/26 08:36:11;;;;;;;11.25;9.02;;;29.40;99.90;;;;;;5062654;28;20234;-72
2023/08/26 08:39:00;;;;;;;11.68;8.15;;;29.80;99.90;;;;;;5077595;28;20208;-71
2023/08/26 08:41:49;;;;;;;10.85;8.38;;;30.20;96.60;;;;;;5063656;28;20230;-73
2023/08/26 08:44:43;;;;;;;9.68;8.55;;;30.80;83.40;;;;;;5066597;28;20223;-73
2023/08/26 08:47:34;;;;;;;11.82;7.70;;;30.90;32.80;;;;;;5059314;28;20346;-72
2023/08/26 08:50:23;;;;;;;9.38;7.70;;;31.10;14.10;;;;;;5049942;28;20223;-72
2023/08/26 08:53:15;;;;;;;8.10;7.00;;;31.20;9.80;;;;;;5044985;28;20227;-73
2023/08/26 08:56:06;;;;;;;8.43;7.10;;;31.40;3.70;;;;;;5044036;28;20223;-74
2023/08/26 08:58:57;;;;;;;10.50;7.35;;;31.50;1.00;;;;;;5066024;28;20249;-74
2023/08/26 09:01:47;;;;;;;8.57;6.63;;;31.80;1.00;;;;;;5078705;28;20310;-72
2023/08/26 09:04:37;;;;;;;7.20;6.40;;;32.30;1.00;;;;;;5047484;28;20284;-73
2023/08/26 09:07:28;;;;;;;8.75;6.85;;;32.40;1.00;;;;;;5053776;28;20238;-72
2023/08/26 09:10:17;;;;;;;6.43;5.68;;;32.70;1.00;;;;;;5051656;28;20235;-72
2023/08/26 09:13:06;;;;;;;9.98;5.22;;;32.90;1.00;;;;;;5070093;28;20594;-73
2023/08/26 09:15:55;;;;;;;8.40;4.90;;;33.10;1.00;;;;;;5050395;28;20308;-73
2023/08/26 09:18:44;;;;;;;6.93;5.47;;;32.90;1.00;;;;;;5046836;28;20225;-73
2023/08/26 09:21:35;;;;;;;5.97;4.80;;;33.10;1.00;;;;;;5077180;28;21169;-73
2023/08/26 09:24:24;;;;;;;6.10;4.70;;;33.30;1.00;;;;;;5080009;28;20312;-72
2023/08/26 09:27:16;;;;;;;5.78;4.50;;;33.70;1.00;;;;;;5076727;28;20230;-74
2023/08/26 09:30:06;;;;;;;6.05;4.90;;;34.10;1.00;;;;;;5077451;28;20234;-73
2023/08/26 09:32:56;;;;;;;5.18;4.47;;;34.50;1.00;;;;;;5064194;28;20231;-73
2023/08/26 09:35:50;;;;;;;5.88;4.45;;;34.70;1.00;;;;;;5062247;28;20276;-72
2023/08/26 09:38:49;;;;;;;4.95;3.72;;;35.00;1.00;;;;;;5071804;28;20765;-73
2023/08/26 09:41:39;;;;;;;7.35;4.03;;;35.30;1.00;;;;;;5065949;28;20235;-73
2023/08/26 09:44:28;;;;;;;5.65;4.35;;;35.40;1.00;;;;;;5048105;28;20320;-74
2023/08/26 09:47:17;;;;;;;4.13;3.40;;;35.70;1.00;;;;;;5064228;28;20853;-73
2023/08/26 09:50:08;;;;;;;5.50;3.55;;;36.20;1.00;;;;;;5077031;28;20230;-73
2023/08/26 09:52:56;;;;;;;5.72;3.90;;;36.60;1.00;;;;;;5076804;28;20238;-74
2023/08/26 09:55:47;;;;;;;5.40;4.05;;;37.30;1.00;;;;;;5080538;28;20215;-73
2023/08/26 09:58:36;;;;;;;8.05;3.15;;;38.00;1.00;;;;;;5045251;28;20219;-74
2023/08/26 10:01:26;;;;;;;10.65;6.05;;;38.50;1.00;;;;;;5056405;28;20863;-72
2023/08/26 10:04:21;;;;;;;5.95;5.35;;;38.20;1.00;;;;;;5056436;28;20222;-73
2023/08/26 10:07:11;;;;;;;3.20;2.90;;;37.30;1.00;;;;;;5056251;28;20223;-73
2023/08/26 10:10:11;;;;;;;6.35;5.50;;;35.50;1.00;;;;;;5080654;28;20673;-74
2023/08/26 10:13:05;;;;;;;7.18;4.50;;;35.70;1.00;;;;;;5066068;28;20233;-72
2023/08/26 10:15:56;;;;;;;3.35;3.00;;;36.30;1.00;;;;;;5083502;28;21083;-73
2023/08/26 10:18:49;;;;;;;5.60;3.55;;;36.00;1.00;;;;;;5069333;28;20230;-74
2023/08/26 10:21:39;;;;;;;5.55;3.33;;;34.80;1.00;;;;;;5062209;28;20236;-74
2023/08/26 10:24:29;;;;;;;7.82;3.53;;;34.00;1.00;;;;;;5062843;28;20219;-74
2023/08/26 10:27:19;;;;;;;9.65;7.28;;;33.40;1.00;;;;;;5044630;28;20233;-73
2023/08/26 10:30:10;;;;;;;3.65;3.20;;;32.80;1.00;;;;;;5071010;28;20226;-73
2023/08/26 10:33:04;;;;;;;3.97;3.20;;;32.20;1.00;;;;;;5059013;28;20220;-74
2023/08/26 10:36:12;;;;;;;4.97;3.60;;;31.80;1.00;;;;;;5080407;28;20630;-75
2023/08/26 10:39:02;;;;;;;8.90;6.72;;;31.40;1.00;;;;;;5081719;28;20265;-74
2023/08/26 10:42:12;;;;;;;5.32;3.33;;;31.00;1.00;;;;;;5064093;28;20310;-73
2023/08/26 10:45:02;;;;;;;6.32;3.30;;;30.80;1.00;;;;;;5059338;28;20212;-73
2023/08/26 10:47:55;;;;;;;6.93;4.30;;;30.60;1.00;;;;;;5061580;28;20704;-73
2023/08/26 10:50:58;;;;;;;5.00;3.92;;;30.30;1.00;;;;;;5065137;28;20228;-73
2023/08/26 10:53:48;;;;;;;4.22;3.42;;;30.20;1.00;;;;;;5044301;28;20510;-73
2023/08/26 10:56:39;;;;;;;4.15;3.25;;;29.90;1.00;;;;;;5069147;28;20421;-73
2023/08/26 10:59:36;;;;;;;6.57;3.60;;;29.80;1.00;;;;;;5060491;28;20222;-74
2023/08/26 11:02:30;;;;;;;5.47;3.63;;;29.70;1.00;;;;;;5057513;28;20215;-73
2023/08/26 11:05:21;;;;;;;5.38;3.55;;;29.50;1.00;;;;;;5060673;28;20228;-74
2023/08/26 11:08:10;;;;;;;5.40;3.72;;;29.60;1.00;;;;;;5045119;28;20230;-73
2023/08/26 11:10:59;;;;;;;6.07;5.47;;;29.40;1.00;;;;;;5046532;28;20220;-74
2023/08/26 11:13:48;;;;;;;6.78;4.53;;;29.40;1.00;;;;;;5051590;28;20808;-73
2023/08/26 11:16:38;;;;;;;10.13;7.30;;;29.50;1.00;;;;;;5077908;28;20227;-74
2023/08/26 11:19:28;;;;;;;11.35;7.65;;;29.50;4.80;;;;;;5062834;28;20599;-74
2023/08/26 11:22:24;;;;;;;8.68;6.78;;;29.70;1.00;;;;;;5070477;28;20434;-74
2023/08/26 11:25:15;;;;;;;13.32;11.65;;;31.40;1.00;;;;;;5052657;28;20230;-72
2023/08/26 11:28:07;;;;;;;7.47;4.55;;;34.30;1.00;;;;;;5060143;28;20212;-73
2023/08/26 11:30:56;;;;;;;9.02;5.40;;;34.20;1.00;;;;;;5076666;28;20231;-72
2023/08/26 11:33:45;;;;;;;5.40;4.57;;;33.40;1.00;;;;;;5082058;28;20219;-72
2023/08/26 11:36:35;;;;;;;4.53;3.65;;;33.50;1.00;;;;;;5063766;28;20238;-73
2023/08/26 11:39:30;;;;;;;7.40;4.47;;;33.10;1.00;;;;;;5066700;28;20233;-73
2023/08/26 11:42:19;;;;;;;4.63;3.80;;;33.40;1.00;;;;;;5083390;28;20219;-72
2023/08/26 11:45:10;;;;;;;4.35;3.72;;;36.20;1.00;;;;;;5080279;28;20230;-74
2023/08/26 11:47:59;;;;;;;5.82;3.28;;;35.50;1.00;;;;;;5058540;28;20235;-72
2023/08/26 11:50:50;;;;;;;9.18;5.70;;;34.50;1.00;;;;;;5076817;28;20239;-72
2023/08/26 11:53:39;;;;;;;7.72;4.78;;;34.10;1.00;;;;;;5061731;28;20234;-72
2023/08/26 11:56:29;;;;;;;6.18;5.65;;;33.80;1.00;;;;;;5057369;28;20211;-73
2023/08/26 11:59:22;;;;;;;7.85;4.03;;;33.10;1.00;;;;;;5066904;28;20219;-73
2023/08/26 12:02:22;;;;;;;5.22;4.05;;;32.60;1.00;;;;;;5079356;28;20367;-72
2023/08/26 12:05:12;;;;;;;5.63;3.55;;;32.30;1.00;;;;;;5082474;28;20231;-72
2023/08/26 12:08:01;;;;;;;6.70;3.67;;;31.90;1.00;;;;;;5078299;28;20690;-72
2023/08/26 12:10:52;;;;;;;4.78;3.83;;;31.40;1.00;;;;;;5065783;28;20223;-73
2023/08/26 12:13:44;;;;;;;5.97;4.28;;;31.10;1.00;;;;;;5059054;28;20328;-72
2023/08/26 12:16:35;;;;;;;5.50;5.00;;;31.00;1.00;;;;;;5076967;28;20230;-73
2023/08/26 12:19:24;;;;;;;4.30;3.30;;;30.70;1.00;;;;;;5077616;28;20421;-72
2023/08/26 12:22:13;;;;;;;7.03;3.60;;;30.70;1.00;;;;;;5072726;28;20243;-73
2023/08/26 12:25:02;;;;;;;7.13;3.65;;;30.60;1.00;;;;;;5054839;28;20246;-72
2023/08/26 12:27:51;;;;;;;4.65;3.17;;;30.70;1.00;;;;;;5066578;28;20220;-72
2023/08/26 12:30:43;;;;;;;4.90;4.40;;;30.70;1.00;;;;;;5049259;28;20220;-74
2023/08/26 12:33:33;;;;;;;7.47;4.70;;;30.70;1.00;;;;;;5081732;28;20219;-73
2023/08/26 12:36:33;;;;;;;5.50;2.80;;;30.70;1.00;;;;;;5041680;28;20694;-72
2023/08/26 12:39:24;;;;;;;6.18;5.50;;;30.80;1.00;;;;;;5042665;28;20318;-73
2023/08/26 12:42:15;;;;;;;4.15;3.40;;;30.50;1.00;;;;;;5058354;28;20220;-72
2023/08/26 12:45:05;;;;;;;4.95;3.28;;;29.90;1.00;;;;;;5048940;28;20595;-72
2023/08/26 12:47:55;;;;;;;3.97;3.05;;;30.00;1.00;;;;;;5063754;28;20285;-73
2023/08/26 12:50:44;;;;;;;3.63;2.53;;;29.90;1.00;;;;;;5059145;28;20765;-72
2023/08/26 12:53:33;;;;;;;3.50;2.88;;;29.80;1.00;;;;;;5053470;28;20306;-71
2023/08/26 12:56:22;;;;;;;3.97;2.72;;;29.60;1.00;;;;;;5059852;28;20591;-71
2023/08/26 12:59:12;;;;;;;4.32;2.65;;;29.60;1.00;;;;;;5068868;28;20225;-72
2023/08/26 13:02:01;;;;;;;4.05;2.80;;;29.60;1.00;;;;;;5066800;28;20223;-74
2023/08/26 13:04:52;;;;;;;6.68;3.22;;;29.50;1.00;;;;;;5063691;28;21152;-73
2023/08/26 13:07:41;;;;;;;6.30;3.00;;;29.50;1.00;;;;;;5051537;28;20686;-74
2023/08/26 13:10:31;;;;;;;6.00;3.65;;;29.60;1.00;;;;;;5056959;28;20773;-72
2023/08/26 13:13:20;;;;;;;8.35;5.30;;;29.40;1.00;;;;;;5070101;28;20225;-73
2023/08/26 13:16:09;;;;;;;3.60;3.20;;;29.40;1.00;;;;;;5063058;28;20234;-73
2023/08/26 13:18:59;;;;;;;4.22;3.78;;;29.30;1.00;;;;;;5057488;28;20231;-73
2023/08/26 13:21:49;;;;;;;3.97;3.42;;;29.20;1.00;;;;;;5061936;28;20226;-72
2023/08/26 13:24:38;;;;;;;4.53;3.00;;;29.20;1.00;;;;;;5067438;28;20223;-72
2023/08/26 13:27:27;;;;;;;3.67;3.17;;;29.10;1.00;;;;;;5062074;28;20230;-73
2023/08/26 13:30:17;;;;;;;6.13;4.45;;;29.10;1.00;;;;;;5055200;28;20223;-73
2023/08/26 13:33:06;;;;;;;6.20;3.70;;;29.00;1.00;;;;;;5062100;28;20705;-72
2023/08/26 13:35:55;;;;;;;4.22;3.65;;;28.80;1.00;;;;;;5070490;28;20232;-74
2023/08/26 13:38:45;;;;;;;6.20;3.95;;;28.70;1.00;;;;;;5062171;28;20215;-72
2023/08/26 13:41:34;;;;;;;5.53;3.55;;;28.60;1.00;;;;;;5060535;28;20226;-73
2023/08/26 13:44:23;;;;;;;5.32;3.95;;;28.50;1.00;;;;;;5081386;28;20227;-72
2023/08/26 13:47:12;;;;;;;26.90;4.63;;;28.40;1.00;;;;;;5060523;28;20228;-72
2023/08/26 13:50:01;;;;;;;7.28;3.05;;;28.50;1.00;;;;;;5046202;28;20216;-73
2023/08/26 13:52:50;;;;;;;5.72;3.97;;;28.80;1.00;;;;;;5059521;28;20285;-73
2023/08/26 13:55:41;;;;;;;9.65;6.70;;;28.80;1.00;;;;;;5071113;28;20745;-72
2023/08/26 13:58:30;;;;;;;7.45;6.30;;;28.70;1.00;;;;;;5077348;28;20234;-72
2023/08/26 14:01:19;;;;;;;6.53;5.50;;;28.70;1.00;;;;;;5047643;28;20629;-72
2023/08/26 14:04:08;;;;;;;5.53;5.03;;;28.60;1.00;;;;;;5076171;28;20253;-72
2023/08/26 14:06:57;;;;;;;6.93;5.03;;;28.50;1.00;;;;;;5060665;28;20301;-73
2023/08/26 14:09:46;;;;;;;4.57;4.03;;;28.50;1.00;;;;;;5060505;28;20364;-73
2023/08/26 14:12:38;;;;;;;4.50;3.83;;;28.50;1.00;;;;;;5072514;28;20317;-71
2023/08/26 14:15:28;;;;;;;8.10;3.70;;;28.50;1.00;;;;;;5053205;28;20244;-74
2023/08/26 14:18:17;;;;;;;6.93;3.67;;;28.40;1.00;;;;;;5035874;28;20243;-73
2023/08/26 14:21:06;;;;;;;5.65;3.60;;;28.40;1.00;;;;;;5064398;28;20227;-73
2023/08/26 14:23:55;;;;;;;4.47;3.65;;;28.50;1.00;;;;;;5042457;28;20227;-74
2023/08/26 14:26:43;;;;;;;4.22;3.53;;;28.50;1.00;;;;;;5075197;28;20234;-73
2023/08/26 14:29:34;;;;;;;4.25;3.60;;;28.40;1.00;;;;;;5063197;28;20251;-69
2023/08/26 14:32:23;;;;;;;5.38;4.07;;;28.40;1.70;;;;;;5036801;28;20227;-72
2023/08/26 14:35:11;;;;;;;5.18;4.10;;;28.30;4.70;;;;;;5063374;28;20262;-70
2023/08/26 14:38:00;;;;;;;7.78;4.30;;;28.30;1.00;;;;;;5056211;28;20218;-71
2023/08/26 14:40:50;;;;;;;5.10;4.28;;;28.30;1.00;;;;;;5066944;28;20223;-72